Hollywood, Florida
Current Conditions -  °F | °C
As of 10:53 PM on Saturday 24 Jan 2015 (Local Time) from KFLL Reporting Station
Scattered Clouds Scattered Clouds  
Wind Chill: 58°   Ceiling: Unl
Heat Index: 58°   Visibility: 10mi
Dew Point: 52°   Wind: 12mph
Humidity: 81%   Direction: 310°NW
Pressure: 30.01"   Gusts: 18mph
Location:  26.01°N, 80.16°W
Report Text: KFLL 250353Z 31010G16KT 10SM SCT250 14/11 A3001 RMK AO2 SLP162 T01440111
Loading
Personal Weather Stations






























Interactive Weather Map New forecast layout! Learn more

10-Day Weather Forecast

Advertisements
Track Severe Weather on mobile